Time;durP1;ratioP1;P1;durP2;ratioP2;P2;SDS_P1;SDS_P2;PMS_P1;PMS_P2;Temp;Humidity;BMP_temperature;BMP_pressure;BME280_temperature;BME280_humidity;BME280_pressure;Samples;Min_cycle;Max_cycle;Signal;HPM_P1;HPM_P2
2022/01/24 00:00:34;;;;;;;;;;;;;;;;;;4989761;28;19926;-67
2022/01/24 00:03:01;;;;;;;;;;;;;;;;;;4981141;28;19930;-67
2022/01/24 00:05:28;;;;;;;;;;;;;;;;;;4980955;28;19926;-67
2022/01/24 00:07:55;;;;;;;;;;;;;;;;;;4984166;28;20292;-67
2022/01/24 00:10:25;;;;;;;;;;;;;;;;;;4977941;28;19933;-67
2022/01/24 00:13:07;;;;;;;;;;;;;;;;;;4982710;28;19927;-67
2022/01/24 00:15:57;;;;;;;;;;;;;;;;;;4979711;28;19972;-67
2022/01/24 00:26:40;;;;;;;;;;;;;;;;;;4978555;28;19929;-67
2022/01/24 00:26:48;;;;;;;;;;;;;;;;;;4981254;28;20387;-67
2022/01/24 00:29:15;;;;;;;;;;;;;;;;;;4987621;28;19932;-67
2022/01/24 00:31:42;;;;;;;;;;;;;;;;;;4989469;28;19935;-67
2022/01/24 00:34:09;;;;;;;;;;;;;;;;;;4984356;28;19926;-67
2022/01/24 00:36:36;;;;;;;;;;;;;;;;;;4977090;28;19926;-67
2022/01/24 00:39:03;;;;;;;;;;;;;;;;;;4976865;28;19934;-67
2022/01/24 00:41:31;;;;;;;;;;;;;;;;;;4983702;28;20026;-65
2022/01/24 00:44:22;;;;;;;;;;;;;;;;;;4981304;28;19933;-65
2022/01/24 00:46:54;;;;;;;;;;;;;;;;;;4976550;28;19954;-66
2022/01/24 00:49:42;;;;;;;;;;;;;;;;;;4983270;28;19932;-66
2022/01/24 00:54:54;;;;;;;;;;;;;;;;;;4982739;28;20020;-66
2022/01/24 00:57:21;;;;;;;;;;;;;;;;;;4982851;28;19932;-67
2022/01/24 00:59:48;;;;;;;;;;;;;;;;;;4986015;28;19926;-66
2022/01/24 01:02:15;;;;;;;;;;;;;;;;;;4984229;28;19925;-66
2022/01/24 01:04:57;;;;;;;;;;;;;;;;;;4982253;28;19930;-66
2022/01/24 01:07:32;;;;;;;;;;;;;;;;;;4983101;28;19925;-69
2022/01/24 01:18:17;;;;;;;;;;;;;;;;;;4979075;28;20316;-67
2022/01/24 01:21:07;;;;;;;;;;;;;;;;;;4989372;28;19969;-67
2022/01/24 01:23:36;;;;;;;;;;;;;;;;;;4990413;28;19933;-68
2022/01/24 01:26:07;;;;;;;;;;;;;;;;;;4991775;23;19976;-76
2022/01/24 01:28:35;;;;;;;;;;;;;;;;;;4986817;28;19929;-76
2022/01/24 01:31:07;;;;;;;;;;;;;;;;;;4988922;28;19926;-76
2022/01/24 01:33:46;;;;;;;;;;;;;;;;;;4990582;28;20061;-76
2022/01/24 01:36:19;;;;;;;;;;;;;;;;;;4990094;28;19937;-77
2022/01/24 01:39:32;;;;;;;;;;;;;;;;;;4984235;28;19926;-77
2022/01/24 01:53:45;;;;;;;;;;;;;;;;;;4930384;29;19998;-76
2022/01/24 01:56:12;;;;;;;;;;;;;;;;;;4929351;29;20433;-77
2022/01/24 01:58:40;;;;;;;;;;;;;;;;;;4957663;28;19926;-76
2022/01/24 02:01:07;;;;;;;;;;;;;;;;;;4985520;28;20351;-76
2022/01/24 02:03:36;;;;;;;;;;;;;;;;;;4981157;28;19926;-77
2022/01/24 02:06:03;;;;;;;;;;;;;;;;;;4980694;28;19951;-76
2022/01/24 02:08:31;;;;;;;;;;;;;;;;;;4978756;28;19926;-75
2022/01/24 02:10:58;;;;;;;;;;;;;;;;;;4981883;28;20125;-76
2022/01/24 02:13:26;;;;;;;;;;;;;;;;;;4974900;28;19936;-76
2022/01/24 02:16:04;;;;;;;;;;;;;;;;;;4979210;28;20720;-76
2022/01/24 02:18:37;;;;;;;;;;;;;;;;;;4986855;28;20438;-77
2022/01/24 02:21:25;;;;;;;;;;;;;;;;;;4983899;28;19937;-76
2022/01/24 02:23:52;;;;;;;;;;;;;;;;;;4980653;28;20019;-75
2022/01/24 02:26:21;;;;;;;;;;;;;;;;;;4984208;28;20013;-76
2022/01/24 02:28:57;;;;;;;;;;;;;;;;;;4986119;28;19926;-76
2022/01/24 02:31:38;;;;;;;;;;;;;;;;;;4989235;28;19926;-75
2022/01/24 02:34:05;;;;;;;;;;;;;;;;;;4979946;28;19930;-76
2022/01/24 02:36:32;;;;;;;;;;;;;;;;;;4982267;28;19926;-77
2022/01/24 02:39:11;;;;;;;;;;;;;;;;;;4981992;28;19926;-77
2022/01/24 02:49:53;;;;;;;;;;;;;;;;;;4984391;28;19969;-77
2022/01/24 02:52:23;;;;;;;;;;;;;;;;;;4977742;28;20029;-75
2022/01/24 02:54:52;;;;;;;;;;;;;;;;;;4989546;28;19929;-76
2022/01/24 02:57:20;;;;;;;;;;;;;;;;;;4987254;28;19926;-76
2022/01/24 02:59:47;;;;;;;;;;;;;;;;;;4981986;28;20368;-77
2022/01/24 03:02:14;;;;;;;;;;;;;;;;;;4980621;28;20032;-76
2022/01/24 03:04:41;;;;;;;;;;;;;;;;;;4982366;28;19958;-78
2022/01/24 03:07:08;;;;;;;;;;;;;;;;;;4985788;28;19957;-75
2022/01/24 03:09:36;;;;;;;;;;;;;;;;;;4983289;28;19934;-76
2022/01/24 03:12:07;;;;;;;;;;;;;;;;;;4979186;28;20467;-75
2022/01/24 03:14:34;;;;;;;;;;;;;;;;;;4984012;28;19926;-77
2022/01/24 03:17:01;;;;;;;;;;;;;;;;;;4984899;28;19949;-76
2022/01/24 03:19:30;;;;;;;;;;;;;;;;;;4985363;28;19933;-76
2022/01/24 03:21:57;;;;;;;;;;;;;;;;;;4987428;28;19976;-76
2022/01/24 03:24:24;;;;;;;;;;;;;;;;;;4982241;28;19926;-76
2022/01/24 03:26:52;;;;;;;;;;;;;;;;;;4986560;28;19993;-76
2022/01/24 03:29:19;;;;;;;;;;;;;;;;;;4985018;28;19926;-77
2022/01/24 03:31:46;;;;;;;;;;;;;;;;;;4990961;28;19988;-77
2022/01/24 03:34:14;;;;;;;;;;;;;;;;;;4985804;28;19930;-78
2022/01/24 03:36:42;;;;;;;;;;;;;;;;;;4990038;28;19933;-77
2022/01/24 03:39:10;;;;;;;;;;;;;;;;;;4983253;28;19925;-77
2022/01/24 03:41:39;;;;;;;;;;;;;;;;;;4990397;28;19930;-77
2022/01/24 03:44:06;;;;;;;;;;;;;;;;;;4988146;28;20427;-77
2022/01/24 03:46:47;;;;;;;;;;;;;;;;;;4987245;28;20379;-77
2022/01/24 03:49:45;;;;;;;;;;;;;;;;;;4985300;28;20453;-77
2022/01/24 03:52:08;;;;;;;;;;;;;;;;;;4991717;28;20000;-77
2022/01/24 03:54:35;;;;;;;;;;;;;;;;;;4976237;28;19926;-76
2022/01/24 03:57:02;;;;;;;;;;;;;;;;;;4987985;28;19932;-76
2022/01/24 03:59:29;;;;;;;;;;;;;;;;;;4985158;28;20398;-76
2022/01/24 04:01:56;;;;;;;;;;;;;;;;;;4990979;28;19980;-76
2022/01/24 04:04:24;;;;;;;;;;;;;;;;;;4987171;28;19933;-76
2022/01/24 04:06:51;;;;;;;;;;;;;;;;;;4989321;28;20027;-76
2022/01/24 04:09:18;;;;;;;;;;;;;;;;;;4989768;28;19929;-76
2022/01/24 04:11:48;;;;;;;;;;;;;;;;;;4987451;28;19954;-77
2022/01/24 04:14:28;;;;;;;;;;;;;;;;;;4984255;28;20281;-76
2022/01/24 04:17:07;;;;;;;;;;;;;;;;;;4978505;28;19929;-76
2022/01/24 04:22:15;;;;;;;;;;;;;;;;;;4988567;28;20412;-77
2022/01/24 04:24:42;;;;;;;;;;;;;;;;;;4989288;28;19984;-76
2022/01/24 04:27:09;;;;;;;;;;;;;;;;;;4983856;28;20316;-76
2022/01/24 04:29:37;;;;;;;;;;;;;;;;;;4987170;28;19933;-76
2022/01/24 04:32:04;;;;;;;;;;;;;;;;;;4987876;28;20285;-76
2022/01/24 04:34:31;;;;;;;;;;;;;;;;;;4984782;28;19926;-76
2022/01/24 04:36:58;;;;;;;;;;;;;;;;;;4983912;28;20407;-76
2022/01/24 04:39:25;;;;;;;;;;;;;;;;;;4989155;28;19926;-76
2022/01/24 04:41:55;;;;;;;;;;;;;;;;;;4989572;28;19926;-76
2022/01/24 04:44:44;;;;;;;;;;;;;;;;;;4983453;28;19984;-76
2022/01/24 04:47:19;;;;;;;;;;;;;;;;;;4986368;28;19926;-77
2022/01/24 04:52:39;;;;;;;;;;;;;;;;;;4989810;28;19981;-76
2022/01/24 04:55:06;;;;;;;;;;;;;;;;;;4986446;28;19926;-77
2022/01/24 04:57:33;;;;;;;;;;;;;;;;;;4981918;28;20667;-77
2022/01/24 05:00:00;;;;;;;;;;;;;;;;;;4989063;28;19926;-77
2022/01/24 05:02:27;;;;;;;;;;;;;;;;;;4985732;28;20025;-77
2022/01/24 05:04:56;;;;;;;;;;;;;;;;;;4988100;28;19925;-76
2022/01/24 05:07:23;;;;;;;;;;;;;;;;;;4986737;28;19930;-77
2022/01/24 05:09:56;;;;;;;;;;;;;;;;;;4987886;28;19932;-77
2022/01/24 05:12:31;;;;;;;;;;;;;;;;;;4984947;28;19926;-76
2022/01/24 05:23:31;;;;;;;;;;;;;;;;;;4989349;28;20407;-77
2022/01/24 05:25:58;;;;;;;;;;;;;;;;;;4982762;28;20008;-77
2022/01/24 05:28:25;;;;;;;;;;;;;;;;;;4985040;28;19926;-77
2022/01/24 05:30:52;;;;;;;;;;;;;;;;;;4990872;28;20032;-77
2022/01/24 05:33:19;;;;;;;;;;;;;;;;;;4987098;28;19929;-77
2022/01/24 05:35:46;;;;;;;;;;;;;;;;;;4978779;28;19941;-77
2022/01/24 05:38:13;;;;;;;;;;;;;;;;;;4977725;28;19930;-77
2022/01/24 05:40:40;;;;;;;;;;;;;;;;;;4983126;28;19933;-77
2022/01/24 05:43:07;;;;;;;;;;;;;;;;;;4986581;28;20004;-77
2022/01/24 05:45:35;;;;;;;;;;;;;;;;;;4984790;28;19932;-77
2022/01/24 05:48:03;;;;;;;;;;;;;;;;;;4982349;28;19950;-77
2022/01/24 05:50:32;;;;;;;;;;;;;;;;;;4987062;28;19927;-77
2022/01/24 05:52:59;;;;;;;;;;;;;;;;;;4983517;28;20009;-77
2022/01/24 05:55:26;;;;;;;;;;;;;;;;;;4990198;28;20013;-76
2022/01/24 05:57:53;;;;;;;;;;;;;;;;;;4985503;28;19938;-77
2022/01/24 06:00:20;;;;;;;;;;;;;;;;;;4985816;28;20510;-76
2022/01/24 06:02:47;;;;;;;;;;;;;;;;;;4985785;28;20576;-74
2022/01/24 06:05:14;;;;;;;;;;;;;;;;;;4984990;28;19932;-72
2022/01/24 06:07:41;;;;;;;;;;;;;;;;;;4990376;28;20014;-72
2022/01/24 06:10:08;;;;;;;;;;;;;;;;;;4979795;28;21311;-74
2022/01/24 06:12:35;;;;;;;;;;;;;;;;;;4986540;28;19926;-74
2022/01/24 06:15:02;;;;;;;;;;;;;;;;;;4988520;28;20020;-73
2022/01/24 06:17:29;;;;;;;;;;;;;;;;;;4985241;28;20315;-72
2022/01/24 06:19:56;;;;;;;;;;;;;;;;;;4985559;28;19934;-74
2022/01/24 06:22:23;;;;;;;;;;;;;;;;;;4985358;28;20435;-74
2022/01/24 06:24:50;;;;;;;;;;;;;;;;;;4982452;28;19925;-74
2022/01/24 06:27:17;;;;;;;;;;;;;;;;;;4988065;28;19936;-74
2022/01/24 06:29:44;;;;;;;;;;;;;;;;;;4984438;28;19937;-75
2022/01/24 06:32:11;;;;;;;;;;;;;;;;;;4981284;28;19933;-74
2022/01/24 06:34:38;;;;;;;;;;;;;;;;;;4986587;28;19933;-75
2022/01/24 06:37:05;;;;;;;;;;;;;;;;;;4988072;28;20404;-75
2022/01/24 06:39:32;;;;;;;;;;;;;;;;;;4972449;28;19938;-74
2022/01/24 06:42:11;;;;;;;;;;;;;;;;;;4974379;28;20403;-75
2022/01/24 06:44:38;;;;;;;;;;;;;;;;;;4978351;28;19930;-76
2022/01/24 06:47:05;;;;;;;;;;;;;;;;;;4987332;28;20296;-74
2022/01/24 06:49:32;;;;;;;;;;;;;;;;;;4982427;28;20016;-74
2022/01/24 06:51:59;;;;;;;;;;;;;;;;;;4978968;28;19948;-75
2022/01/24 06:54:26;;;;;;;;;;;;;;;;;;4990077;28;19925;-75
2022/01/24 06:56:53;;;;;;;;;;;;;;;;;;4982047;28;20020;-75
2022/01/24 06:59:20;;;;;;;;;;;;;;;;;;4980437;28;20020;-75
2022/01/24 07:01:47;;;;;;;;;;;;;;;;;;4981868;28;20016;-73
2022/01/24 07:04:14;;;;;;;;;;;;;;;;;;4977635;28;19926;-73
2022/01/24 07:06:43;;;;;;;;;;;;;;;;;;4990334;28;20276;-74
2022/01/24 07:09:16;;;;;;;;;;;;;;;;;;4980255;28;19937;-74
2022/01/24 07:11:44;;;;;;;;;;;;;;;;;;4988481;28;19925;-73
2022/01/24 07:14:13;;;;;;;;;;;;;;;;;;4985080;28;19932;-74
2022/01/24 07:17:03;;;;;;;;;;;;;;;;;;4979833;28;19933;-75
2022/01/24 07:19:30;;;;;;;;;;;;;;;;;;4983706;28;19973;-75
2022/01/24 07:21:57;;;;;;;;;;;;;;;;;;4981707;28;19952;-75
2022/01/24 07:24:24;;;;;;;;;;;;;;;;;;4984903;28;19932;-75
2022/01/24 07:26:51;;;;;;;;;;;;;;;;;;5090778;22;20016;-72
2022/01/24 07:29:18;;;;;;;;;;;;;;;;;;5002576;28;19937;-71
2022/01/24 07:31:46;;;;;;;;;;;;;;;;;;5008486;28;19932;-72
2022/01/24 07:34:13;;;;;;;;;;;;;;;;;;5004937;28;19926;-72
2022/01/24 07:36:40;;;;;;;;;;;;;;;;;;5003155;28;19941;-72
2022/01/24 07:39:07;;;;;;;;;;;;;;;;;;4984040;28;20261;-72
2022/01/24 07:41:42;;;;;;;;;;;;;;;;;;4996083;28;19926;-72
2022/01/24 07:44:08;;;;;;;;;;;;;;;;;;4992720;28;19930;-71
2022/01/24 07:46:35;;;;;;;;;;;;;;;;;;4984001;28;19926;-73
2022/01/24 07:49:02;;;;;;;;;;;;;;;;;;4990772;28;19926;-70
2022/01/24 07:51:29;;;;;;;;;;;;;;;;;;4983646;28;19940;-72
2022/01/24 07:53:56;;;;;;;;;;;;;;;;;;4985340;28;19932;-73
2022/01/24 07:56:23;;;;;;;;;;;;;;;;;;4987991;28;19933;-73
2022/01/24 07:58:50;;;;;;;;;;;;;;;;;;4978264;28;19930;-73
2022/01/24 08:01:17;;;;;;;;;;;;;;;;;;4986869;28;20427;-73
2022/01/24 08:03:44;;;;;;;;;;;;;;;;;;4986313;28;19926;-74
2022/01/24 08:06:11;;;;;;;;;;;;;;;;;;4986250;28;20446;-73
2022/01/24 08:08:38;;;;;;;;;;;;;;;;;;4988594;28;20344;-74
2022/01/24 08:11:05;;;;;;;;;;;;;;;;;;4986285;28;19926;-74
2022/01/24 08:13:32;;;;;;;;;;;;;;;;;;4986545;28;19926;-74
2022/01/24 08:15:59;;;;;;;;;;;;;;;;;;4981425;28;19945;-74
2022/01/24 08:18:25;;;;;;;;;;;;;;;;;;4985512;28;19930;-74
2022/01/24 08:20:52;;;;;;;;;;;;;;;;;;4985796;28;20291;-74
2022/01/24 08:23:20;;;;;;;;;;;;;;;;;;4984717;28;19925;-74
2022/01/24 08:25:47;;;;;;;;;;;;;;;;;;4985501;28;19973;-75
2022/01/24 08:28:14;;;;;;;;;;;;;;;;;;4985641;28;20029;-75
2022/01/24 08:30:41;;;;;;;;;;;;;;;;;;4986990;28;19926;-75
2022/01/24 08:33:08;;;;;;;;;;;;;;;;;;4986080;28;20024;-75
2022/01/24 08:35:35;;;;;;;;;;;;;;;;;;4986803;28;19976;-75
2022/01/24 08:38:02;;;;;;;;;;;;;;;;;;4985645;28;19965;-75
2022/01/24 08:40:31;;;;;;;;;;;;;;;;;;4986599;28;19934;-76
2022/01/24 08:43:01;;;;;;;;;;;;;;;;;;4983857;28;19930;-76
2022/01/24 08:45:50;;;;;;;;;;;;;;;;;;4987984;28;19925;-76
2022/01/24 08:48:17;;;;;;;;;;;;;;;;;;4984384;28;19985;-75
2022/01/24 08:50:44;;;;;;;;;;;;;;;;;;4983876;28;19937;-75
2022/01/24 08:53:11;;;;;;;;;;;;;;;;;;4980152;28;19933;-76
2022/01/24 08:55:38;;;;;;;;;;;;;;;;;;4983644;28;19926;-75
2022/01/24 08:58:05;;;;;;;;;;;;;;;;;;4988208;28;20380;-76
2022/01/24 09:00:31;;;;;;;;;;;;;;;;;;4983297;28;19933;-77
2022/01/24 09:02:58;;;;;;;;;;;;;;;;;;4981402;28;19941;-76
2022/01/24 09:05:27;;;;;;;;;;;;;;;;;;4988188;28;19937;-76
2022/01/24 09:07:54;;;;;;;;;;;;;;;;;;4985229;28;19926;-76
2022/01/24 09:10:24;;;;;;;;;;;;;;;;;;4981017;28;20315;-77
2022/01/24 09:12:51;;;;;;;;;;;;;;;;;;4986617;28;19933;-75
2022/01/24 09:15:17;;;;;;;;;;;;;;;;;;4981163;28;20184;-75
2022/01/24 09:17:44;;;;;;;;;;;;;;;;;;4981482;28;20291;-76
2022/01/24 09:20:11;;;;;;;;;;;;;;;;;;4986137;28;20013;-74
2022/01/24 09:22:38;;;;;;;;;;;;;;;;;;4984778;28;19926;-76
2022/01/24 09:25:09;;;;;;;;;;;30.00;34.80;;;;;;4985016;28;19937;-75
2022/01/24 09:27:36;;;;;;;;;;;;;;;;;;4986882;28;20056;-76
2022/01/24 09:30:03;;;;;;;;;;;;;;;;;;4984820;28;20495;-75
2022/01/24 09:32:30;;;;;;;;;;;;;;;;;;4984473;28;19925;-76
2022/01/24 09:34:57;;;;;;;;;;;;;;;;;;4984038;28;20012;-76
2022/01/24 09:37:24;;;;;;;;;;;30.40;36.30;;;;;;4980602;28;19940;-76
2022/01/24 09:39:51;;;;;;;;;;;;;;;;;;4978948;28;19932;-76
2022/01/24 09:42:19;;;;;;;;;;;29.10;37.10;;;;;;4987381;28;19940;-76
2022/01/24 09:44:46;;;;;;;;;;;;;;;;;;4983625;28;19934;-75
2022/01/24 09:47:13;;;;;;;;;;;;;;;;;;4985201;28;20013;-75
2022/01/24 09:49:40;;;;;;;;;;;;;;;;;;4983186;28;19940;-75
2022/01/24 09:52:07;;;;;;;;;;;;;;;;;;4985192;28;20021;-75
2022/01/24 09:54:34;;;;;;;;;;;;;;;;;;4984249;28;20292;-75
2022/01/24 09:57:01;;;;;;;;;;;;;;;;;;4986277;28;19930;-75
2022/01/24 09:59:29;;;;;;;;;;;;;;;;;;4982965;28;19926;-75
2022/01/24 10:01:56;;;;;;;;;;;;;;;;;;4981972;28;19929;-75
2022/01/24 10:04:24;;;;;;;;;;;;;;;;;;4985905;28;20024;-75
2022/01/24 10:06:51;;;;;;;;;;;;;;;;;;4986160;28;19936;-74
2022/01/24 10:09:18;;;;;;;;;;;;;;;;;;4981411;28;19926;-75
2022/01/24 10:11:45;;;;;;;;;;;;;;;;;;4983562;28;19937;-75
2022/01/24 10:16:55;;;;;;;;;;;;;;;;;;4961568;28;19922;-74
2022/01/24 10:19:22;;;;;;;;;;;;;;;;;;4983045;28;20053;-74
2022/01/24 10:21:49;;;;;;;;;;;;;;;;;;4983352;28;19936;-74
2022/01/24 10:24:16;;;;;;;;;;;;;;;;;;4983661;28;19936;-73
2022/01/24 10:26:43;;;;;;;;;;;;;;;;;;4986127;28;19926;-73
2022/01/24 10:29:10;;;;;;;;;;;;;;;;;;4987435;28;19968;-75
2022/01/24 10:31:37;;;;;;;;;;;;;;;;;;4980215;28;20299;-73
2022/01/24 10:34:06;;;;;;;;;;;;;;;;;;4985580;28;20319;-74
2022/01/24 10:36:33;;;;;;;;;;;;;;;;;;4986586;28;19937;-75
2022/01/24 10:39:05;;;;;;;;;;;;;;;;;;4983977;28;19988;-74
2022/01/24 10:41:50;;;;;;;;;;;;;;;;;;4984385;28;19973;-76
2022/01/24 10:44:17;;;;;;;;;;;;;;;;;;4983972;28;20406;-74
2022/01/24 10:46:44;;;;;;;;;;;;;;;;;;4982074;28;20324;-73
2022/01/24 10:49:13;;;;;;;;;;;;;;;;;;4981524;28;20387;-73
2022/01/24 10:51:40;;;;;;;;;;;;;;;;;;4990009;28;19933;-73
2022/01/24 10:54:07;;;;;;;;;;;;;;;;;;4981494;28;20064;-73
2022/01/24 10:56:34;;;;;;;;;;;;;;;;;;4980995;28;19926;-73
2022/01/24 10:59:01;;;;;;;;;;;;;;;;;;4984963;28;19926;-69
2022/01/24 11:01:28;;;;;;;;;;;;;;;;;;4982443;28;19932;-74
2022/01/24 11:03:55;;;;;;;;;;;;;;;;;;4978591;28;19929;-76
2022/01/24 11:06:22;;;;;;;;;;;;;;;;;;4985303;28;19930;-74
2022/01/24 11:08:49;;;;;;;;;;;;;;;;;;4979747;28;19985;-75
2022/01/24 11:11:16;;;;;;;;;;;;;;;;;;4985866;28;19926;-76
2022/01/24 11:13:46;;;;;;;;;;;;;;;;;;4984684;28;19961;-70
2022/01/24 11:16:13;;;;;;;;;;;;;;;;;;4985828;28;20024;-73
2022/01/24 11:18:40;;;;;;;;;;;;;;;;;;4981489;28;19977;-75
2022/01/24 11:21:13;;;;;;;;;;;;;;;;;;4983723;28;19926;-71
2022/01/24 11:23:40;;;;;;;;;;;;;;;;;;4985113;28;20020;-71
2022/01/24 11:26:07;;;;;;;;;;;;;;;;;;4982836;28;19934;-75
2022/01/24 11:28:34;;;;;;;;;;;;;;;;;;4979444;28;19934;-73
2022/01/24 11:31:01;;;;;;;;;;;;;;;;;;4973715;28;19934;-72
2022/01/24 11:33:28;;;;;;;;;;;;;;;;;;4981110;28;19932;-75
2022/01/24 11:35:55;;;;;;;;;;;;;;;;;;4983168;28;19961;-74
2022/01/24 11:38:22;;;;;;;;;;;;;;;;;;4984114;28;19992;-75
2022/01/24 11:40:53;;;;;;;;;;;;;;;;;;4989828;28;19929;-73
2022/01/24 11:43:20;;;;;;;;;;;;;;;;;;4989343;28;20008;-75
2022/01/24 11:45:59;;;;;;;;;;;;;;;;;;4988768;28;19926;-75
2022/01/24 11:48:26;;;;;;;;;;;;;;;;;;4986395;28;19985;-75
2022/01/24 11:50:53;;;;;;;;;;;;;;;;;;4988528;28;19926;-73
2022/01/24 11:53:20;;;;;;;;;;;;;;;;;;4984829;28;19933;-74
2022/01/24 11:55:47;;;;;;;;;;;;;;;;;;4986110;28;20397;-74
2022/01/24 11:58:14;;;;;;;;;;;;;;;;;;4986752;28;19952;-74
2022/01/24 12:00:42;;;;;;;;;;;;;;;;;;4986289;28;19926;-76
2022/01/24 12:03:09;;;;;;;;;;;;;;;;;;4983956;28;19953;-74
2022/01/24 12:05:36;;;;;;;;;;;;;;;;;;4985532;28;19936;-73
2022/01/24 12:08:03;;;;;;;;;;;;;;;;;;4986851;28;20506;-74
2022/01/24 12:10:35;;;;;;;;;;;;;;;;;;4983746;28;19929;-75
2022/01/24 12:13:03;;;;;;;;;;;;;;;;;;4990733;28;19932;-75
2022/01/24 12:15:30;;;;;;;;;;;;;;;;;;4989906;28;19983;-75
2022/01/24 12:17:57;;;;;;;;;;;;;;;;;;4986007;28;19930;-74
2022/01/24 12:20:24;;;;;;;;;;;;;;;;;;4988519;28;19926;-74
2022/01/24 12:22:51;;;;;;;;;;;;;;;;;;4987301;28;19965;-72
2022/01/24 12:25:18;;;;;;;;;;;;;;;;;;4989663;28;20012;-73
2022/01/24 12:27:45;;;;;;;;;;;;;;;;;;4982493;28;19937;-74
2022/01/24 12:30:12;;;;;;;;;;;;;;;;;;4988375;28;19934;-75
2022/01/24 12:32:39;;;;;;;;;;;;;;;;;;4985443;28;19936;-73
2022/01/24 12:35:06;;;;;;;;;;;;;;;;;;4983996;28;19930;-73
2022/01/24 12:37:33;;;;;;;;;;;;;;;;;;4980254;28;20406;-73
2022/01/24 12:40:02;;;;;;;;;;;;;;;;;;4986885;28;20388;-73
2022/01/24 12:42:41;;;;;;;;;;;;;;;;;;4985190;28;20051;-72
2022/01/24 12:47:52;;;;;;;;;;;;;;;;;;4987233;28;19921;-73
2022/01/24 12:50:19;;;;;;;;;;;;;;;;;;4989190;28;20562;-73
2022/01/24 12:52:49;;;;;;;;;;;;;;;;;;4986753;28;19981;-73
2022/01/24 12:55:16;;;;;;;;;;;;;;;;;;4982521;28;19968;-72
2022/01/24 12:57:43;;;;;;;;;;;;;;;;;;4983418;28;20422;-74
2022/01/24 13:00:10;;;;;;;;;;;;;;;;;;4978790;28;19926;-74
2022/01/24 13:02:38;;;;;;;;;;;;;;;;;;4978235;28;19930;-74
2022/01/24 13:05:04;;;;;;;;;;;;;;;;;;4984846;28;19933;-74
2022/01/24 13:07:32;;;;;;;;;;;;;;;;;;4985113;28;20389;-72
2022/01/24 13:09:59;;;;;;;;;;;;;;;;;;4985466;28;20338;-72
2022/01/24 13:12:26;;;;;;;;;;;;;;;;;;4980185;28;20340;-72
2022/01/24 13:14:56;;;;;;;;;;;;;;;;;;4982891;28;19926;-73
2022/01/24 13:23:07;;;;;;;;;;;;;;;;;;4942928;29;20414;-73
2022/01/24 13:25:36;;;;;;;;;;;;;;;;;;4977629;28;20119;-71
2022/01/24 13:28:03;;;;;;;;;;;;;;;;;;5013833;22;20161;-74
2022/01/24 13:30:30;;;;;;;;;;;;;;;;;;5000453;28;19933;-74
2022/01/24 13:32:57;;;;;;;;;;;;;;;;;;5000120;28;19925;-73
2022/01/24 13:35:26;;;;;;;;;;;;;;;;;;5001946;28;19930;-73
2022/01/24 13:37:55;;;;;;;;;;;;;;;;;;4986762;28;20425;-71
2022/01/24 13:40:23;;;;;;;;;;;;;;;;;;4982861;28;20303;-74
2022/01/24 13:42:50;;;;;;;;;;;;;;;;;;4982534;28;19972;-74
2022/01/24 13:45:17;;;;;;;;;;;;;;;;;;4982468;28;20037;-73
2022/01/24 13:47:44;;;;;;;;;;;;;;;;;;4981355;28;19930;-73
2022/01/24 13:50:11;;;;;;;;;;;;;;;;;;4980758;28;19934;-73
2022/01/24 13:52:38;;;;;;;;;;;;;;;;;;4981652;28;20020;-75
2022/01/24 13:55:05;;;;;;;;;;;;;;;;;;4983587;28;19933;-74
2022/01/24 13:57:32;;;;;;;;;;;;;;;;;;4977068;28;20312;-75
2022/01/24 13:59:59;;;;;;;;;;;;;;;;;;4981007;28;20632;-75
2022/01/24 14:02:32;;;;;;;;;;;;;;;;;;4981395;28;19932;-73
2022/01/24 14:05:02;;;;;;;;;;;;;;;;;;4980392;28;20407;-75
2022/01/24 14:07:29;;;;;;;;;;;;;;;;;;4982088;28;20313;-74
2022/01/24 14:09:57;;;;;;;;;;;;;;;;;;4979219;28;19945;-76
2022/01/24 14:12:26;;;;;;;;;;;;;;;;;;4982096;28;19926;-73
2022/01/24 14:14:59;;;;;;;;;;;;;;;;;;4978502;28;19929;-72
2022/01/24 14:17:34;;;;;;;;;;;;;;;;;;4979254;28;20469;-73
2022/01/24 14:20:03;;;;;;;;;;;;;;;;;;4974399;28;19926;-73
2022/01/24 14:22:30;;;;;;;;;;;;;;;;;;4981513;28;19926;-75
2022/01/24 14:24:57;;;;;;;;;;;;;;;;;;4982424;28;19925;-73
2022/01/24 14:27:23;;;;;;;;;;;;;;;;;;4981955;28;19957;-74
2022/01/24 14:29:50;;;;;;;;;;;;;;;;;;4983280;28;19953;-74
2022/01/24 14:32:20;;;;;;;;;;;;;;;;;;4985029;28;19935;-74
2022/01/24 14:34:47;;;;;;;;;;;;;;;;;;4984890;28;19974;-74
2022/01/24 14:37:14;;;;;;;;;;;;;;;;;;4982530;28;19933;-74
2022/01/24 14:39:42;;;;;;;;;;;;;;;;;;4983278;28;19936;-73
2022/01/24 14:42:09;;;;;;;;;;;;;;;;;;4982513;28;19930;-71
2022/01/24 14:44:54;;;;;;;;;;;;;;;;;;4976894;28;20021;-72
2022/01/24 14:47:20;;;;;;;;;;;;;;;;;;4974176;28;19973;-72
2022/01/24 14:49:47;;;;;;;;;;;;;;;;;;4978794;28;19939;-72
2022/01/24 14:52:18;;;;;;;;;;;;;;;;;;4982545;28;20386;-72
2022/01/24 14:54:45;;;;;;;;;;;;;;;;;;4984289;28;19930;-72
2022/01/24 14:57:15;;;;;;;;;;;;;;;;;;4976157;28;20293;-71
2022/01/24 14:59:44;;;;;;;;;;;;;;;;;;4978369;28;19933;-72
2022/01/24 15:02:11;;;;;;;;;;;;;;;;;;4973398;28;19934;-73
2022/01/24 15:04:38;;;;;;;;;;;;;;;;;;4977917;28;19933;-72
2022/01/24 15:07:05;;;;;;;;;;;;;;;;;;4985500;28;19937;-73
2022/01/24 15:09:32;;;;;;;;;;;;;;;;;;4983327;28;19925;-72
2022/01/24 15:11:59;;;;;;;;;;;;;;;;;;4983802;28;19930;-73
2022/01/24 15:14:29;;;;;;;;;;;;;;;;;;4981871;28;19933;-74
2022/01/24 15:17:04;;;;;;;;;;;;;;;;;;4988457;28;19926;-73
2022/01/24 15:25:22;;;;;;;;;;;;;;;;;;4986619;28;19925;-73
2022/01/24 15:27:49;;;;;;;;;;;;;;;;;;4986534;28;19932;-71
2022/01/24 15:30:16;;;;;;;;;;;;;;;;;;4978245;28;19934;-73
2022/01/24 15:32:43;;;;;;;;;;;;;;;;;;4983731;28;19925;-73
2022/01/24 15:35:10;;;;;;;;;;;;;;;;;;4987574;28;19933;-73
2022/01/24 15:37:37;;;;;;;;;;;;;;;;;;4987081;28;20012;-73
2022/01/24 15:40:05;;;;;;;;;;;;;;;;;;4982315;28;20025;-73
2022/01/24 15:42:41;;;;;;;;;;;;;;;;;;4985571;28;20315;-73
2022/01/24 15:45:27;;;;;;;;;;;;;;;;;;4985637;28;20463;-73
2022/01/24 15:47:55;;;;;;;;;;;;;;;;;;4986270;28;20373;-73
2022/01/24 15:50:23;;;;;;;;;;;;;;;;;;4987893;28;19933;-73
2022/01/24 15:52:51;;;;;;;;;;;;;;;;;;4988269;28;19944;-73
2022/01/24 15:55:20;;;;;;;;;;;;;;;;;;4979348;28;19930;-72
2022/01/24 15:57:47;;;;;;;;;;;;;;;;;;4985967;28;19925;-74
2022/01/24 16:00:14;;;;;;;;;;;;;;;;;;4982636;28;20288;-73
2022/01/24 16:02:42;;;;;;;;;;;;;;;;;;4983970;28;19926;-73
2022/01/24 16:05:09;;;;;;;;;;;;;;;;;;4984635;28;19957;-72
2022/01/24 16:07:38;;;;;;;;;;;;;;;;;;4984961;28;20388;-72
2022/01/24 16:10:05;;;;;;;;;;;;;;;;;;4990043;28;19937;-71
2022/01/24 16:12:32;;;;;;;;;;;;;;;;;;4988673;28;20308;-72
2022/01/24 16:14:59;;;;;;;;;;;;;;;;;;4986143;28;19930;-72
2022/01/24 16:17:26;;;;;;;;;;;;;;;;;;4986946;28;20312;-73
2022/01/24 16:19:55;;;;;;;;;;;;;;;;;;4986670;28;19926;-72
2022/01/24 16:22:44;;;;;;;;;;;;;;;;;;4988487;28;20335;-71
2022/01/24 16:25:33;;;;;;;;;;;;;;;;;;4986440;28;19981;-70
2022/01/24 16:28:00;;;;;;;;;;;;;;;;;;4986791;28;19934;-73
2022/01/24 16:30:27;;;;;;;;;;;;;;;;;;4989394;28;19926;-72
2022/01/24 16:32:54;;;;;;;;;;;;;;;;;;4984644;28;19937;-72
2022/01/24 16:35:21;;;;;;;;;;;;;;;;;;4986702;28;19926;-71
2022/01/24 16:37:48;;;;;;;;;;;;;;;;;;4986048;28;19926;-74
2022/01/24 16:40:23;;;;;;;;;;;;;;;;;;4985969;28;19936;-71
2022/01/24 16:43:08;;;;;;;;;;;;;;;;;;4986734;28;20300;-74
2022/01/24 16:48:19;;;;;;;;;;;;;;;;;;4986616;28;19921;-69
2022/01/24 16:50:46;;;;;;;;;;;;;;;;;;4985895;28;19930;-72
2022/01/24 16:53:14;;;;;;;;;;;;;;;;;;4986421;28;20399;-70
2022/01/24 16:55:41;;;;;;;;;;;;;;;;;;4984628;28;19981;-69
2022/01/24 16:58:08;;;;;;;;;;;;;;;;;;4987223;28;19926;-72
2022/01/24 17:00:35;;;;;;;;;;;;;;;;;;4985052;28;19930;-73
2022/01/24 17:03:02;;;;;;;;;;;;;;;;;;4989500;28;19969;-75
2022/01/24 17:05:29;;;;;;;;;;;;;;;;;;4988124;28;19940;-74
2022/01/24 17:07:56;;;;;;;;;;;;;;;;;;4984292;28;19948;-69
2022/01/24 17:10:23;;;;;;;;;;;;;;;;;;4981774;28;19933;-74
2022/01/24 17:12:50;;;;;;;;;;;;;;;;;;4982898;28;20410;-74
2022/01/24 17:15:18;;;;;;;;;;;;;;;;;;4984896;28;19926;-74
2022/01/24 17:17:45;;;;;;;;;;;;;;;;;;4985840;28;19926;-72
2022/01/24 17:20:12;;;;;;;;;;;;;;;;;;4986846;28;20580;-71
2022/01/24 17:22:39;;;;;;;;;;;;;;;;;;4985582;28;19925;-73
2022/01/24 17:25:06;;;;;;;;;;;;;;;;;;4984912;28;20012;-72
2022/01/24 17:27:33;;;;;;;;;;;;;;;;;;4984169;28;20384;-73
2022/01/24 17:30:00;;;;;;;;;;;;;;;;;;4983832;28;19981;-75
2022/01/24 17:32:28;;;;;;;;;;;;;;;;;;4987621;28;19929;-74
2022/01/24 17:34:55;;;;;;;;;;;;;;;;;;4984937;28;20316;-73
2022/01/24 17:37:22;;;;;;;;;;;;;;;;;;4984374;28;20216;-75
2022/01/24 17:39:49;;;;;;;;;;;;;;;;;;4987478;28;19938;-73
2022/01/24 17:42:16;;;;;;;;;;;;;;;;;;4985310;28;19945;-76
2022/01/24 17:44:44;;;;;;;;;;;;;;;;;;4982855;28;19925;-74
2022/01/24 17:47:11;;;;;;;;;;;;;;;;;;4985851;28;19933;-74
2022/01/24 17:49:38;;;;;;;;;;;;;;;;;;4982979;28;19944;-73
2022/01/24 17:52:05;;;;;;;;;;;;;;;;;;4984791;28;19980;-73
2022/01/24 17:54:32;;;;;;;;;;;;;;;;;;4984890;28;20016;-74
2022/01/24 17:56:59;;;;;;;;;;;;;;;;;;4986684;28;20407;-74
2022/01/24 17:59:26;;;;;;;;;;;;;;;;;;4986008;28;19926;-77
2022/01/24 18:01:53;;;;;;;;;;;;;;;;;;4984901;28;19971;-76
2022/01/24 18:04:21;;;;;;;;;;;;;;;;;;4983281;28;20017;-74